sensor_id;sensor_type;location;lat;lon;timestamp;P1;durP1;ratioP1;P2;durP2;ratioP2
26277;SDS011;14000;52.056;8.510;2022-12-18T00:02:12;75.93;;;36.93;;
26277;SDS011;14000;52.056;8.510;2022-12-18T00:04:38;79.03;;;37.77;;
26277;SDS011;14000;52.056;8.510;2022-12-18T00:07:04;77.30;;;36.70;;
26277;SDS011;14000;52.056;8.510;2022-12-18T00:09:29;81.27;;;37.13;;
26277;SDS011;14000;52.056;8.510;2022-12-18T00:11:55;76.63;;;36.60;;
26277;SDS011;14000;52.056;8.510;2022-12-18T00:14:20;76.90;;;37.70;;
26277;SDS011;14000;52.056;8.510;2022-12-18T00:16:46;82.70;;;36.20;;
26277;SDS011;14000;52.056;8.510;2022-12-18T00:19:12;83.77;;;37.40;;
26277;SDS011;14000;52.056;8.510;2022-12-18T00:21:39;88.88;;;39.10;;
26277;SDS011;14000;52.056;8.510;2022-12-18T00:24:05;81.90;;;38.05;;
26277;SDS011;14000;52.056;8.510;2022-12-18T00:26:32;84.73;;;38.70;;
26277;SDS011;14000;52.056;8.510;2022-12-18T00:28:59;81.20;;;38.97;;
26277;SDS011;14000;52.056;8.510;2022-12-18T00:31:26;85.50;;;37.13;;
26277;SDS011;14000;52.056;8.510;2022-12-18T00:33:53;79.07;;;39.17;;
26277;SDS011;14000;52.056;8.510;2022-12-18T00:36:26;80.88;;;38.17;;
26277;SDS011;14000;52.056;8.510;2022-12-18T00:38:54;79.70;;;37.35;;
26277;SDS011;14000;52.056;8.510;2022-12-18T00:41:21;82.38;;;38.45;;
26277;SDS011;14000;52.056;8.510;2022-12-18T00:44:07;75.32;;;37.00;;
26277;SDS011;14000;52.056;8.510;2022-12-18T00:46:35;83.07;;;37.55;;
26277;SDS011;14000;52.056;8.510;2022-12-18T00:49:01;78.70;;;38.00;;
26277;SDS011;14000;52.056;8.510;2022-12-18T00:51:27;78.50;;;36.30;;
26277;SDS011;14000;52.056;8.510;2022-12-18T00:53:52;84.73;;;38.07;;
26277;SDS011;14000;52.056;8.510;2022-12-18T00:56:18;73.40;;;35.87;;
26277;SDS011;14000;52.056;8.510;2022-12-18T00:58:44;76.37;;;35.67;;
26277;SDS011;14000;52.056;8.510;2022-12-18T01:01:09;71.83;;;35.10;;
26277;SDS011;14000;52.056;8.510;2022-12-18T01:03:35;80.17;;;36.90;;
26277;SDS011;14000;52.056;8.510;2022-12-18T01:06:07;79.47;;;36.77;;
26277;SDS011;14000;52.056;8.510;2022-12-18T01:08:35;73.43;;;35.42;;
26277;SDS011;14000;52.056;8.510;2022-12-18T01:11:01;77.80;;;36.47;;
26277;SDS011;14000;52.056;8.510;2022-12-18T01:13:32;78.93;;;36.35;;
26277;SDS011;14000;52.056;8.510;2022-12-18T01:15:57;76.83;;;35.67;;
26277;SDS011;14000;52.056;8.510;2022-12-18T01:18:23;75.50;;;35.60;;
26277;SDS011;14000;52.056;8.510;2022-12-18T01:20:48;75.17;;;34.70;;
26277;SDS011;14000;52.056;8.510;2022-12-18T01:23:14;73.43;;;33.80;;
26277;SDS011;14000;52.056;8.510;2022-12-18T01:25:39;78.80;;;35.57;;
26277;SDS011;14000;52.056;8.510;2022-12-18T01:28:05;74.63;;;34.20;;
26277;SDS011;14000;52.056;8.510;2022-12-18T01:30:30;78.83;;;36.80;;
26277;SDS011;14000;52.056;8.510;2022-12-18T01:32:56;74.13;;;35.87;;
26277;SDS011;14000;52.056;8.510;2022-12-18T01:35:22;74.45;;;35.97;;
26277;SDS011;14000;52.056;8.510;2022-12-18T01:37:48;66.83;;;33.20;;
26277;SDS011;14000;52.056;8.510;2022-12-18T01:40:13;67.23;;;31.30;;
26277;SDS011;14000;52.056;8.510;2022-12-18T01:42:39;77.07;;;34.50;;
26277;SDS011;14000;52.056;8.510;2022-12-18T01:47:49;74.95;;;32.72;;
26277;SDS011;14000;52.056;8.510;2022-12-18T01:52:53;68.47;;;32.40;;
26277;SDS011;14000;52.056;8.510;2022-12-18T01:55:22;64.10;;;30.80;;
26277;SDS011;14000;52.056;8.510;2022-12-18T01:57:53;60.20;;;28.50;;
26277;SDS011;14000;52.056;8.510;2022-12-18T02:00:21;57.17;;;25.52;;
26277;SDS011;14000;52.056;8.510;2022-12-18T02:02:48;63.92;;;28.65;;
26277;SDS011;14000;52.056;8.510;2022-12-18T02:05:18;61.00;;;28.43;;
26277;SDS011;14000;52.056;8.510;2022-12-18T02:13:21;61.50;;;27.77;;
26277;SDS011;14000;52.056;8.510;2022-12-18T02:16:13;59.47;;;29.00;;
26277;SDS011;14000;52.056;8.510;2022-12-18T02:18:50;64.75;;;28.40;;
26277;SDS011;14000;52.056;8.510;2022-12-18T02:26:58;61.03;;;27.38;;
26277;SDS011;14000;52.056;8.510;2022-12-18T02:32:05;68.22;;;29.60;;
26277;SDS011;14000;52.056;8.510;2022-12-18T02:34:38;62.15;;;29.60;;
26277;SDS011;14000;52.056;8.510;2022-12-18T02:37:07;63.97;;;28.92;;
26277;SDS011;14000;52.056;8.510;2022-12-18T02:39:37;63.92;;;29.77;;
26277;SDS011;14000;52.056;8.510;2022-12-18T02:42:05;67.20;;;30.67;;
26277;SDS011;14000;52.056;8.510;2022-12-18T02:44:34;70.00;;;31.05;;
26277;SDS011;14000;52.056;8.510;2022-12-18T02:47:08;69.35;;;31.13;;
26277;SDS011;14000;52.056;8.510;2022-12-18T02:49:40;70.03;;;31.23;;
26277;SDS011;14000;52.056;8.510;2022-12-18T03:00:30;67.53;;;30.33;;
26277;SDS011;14000;52.056;8.510;2022-12-18T03:03:14;66.47;;;30.17;;
26277;SDS011;14000;52.056;8.510;2022-12-18T03:06:06;65.60;;;29.85;;
26277;SDS011;14000;52.056;8.510;2022-12-18T03:08:41;67.60;;;29.85;;
26277;SDS011;14000;52.056;8.510;2022-12-18T03:11:11;57.30;;;27.58;;
26277;SDS011;14000;52.056;8.510;2022-12-18T03:13:39;62.85;;;27.27;;
26277;SDS011;14000;52.056;8.510;2022-12-18T03:16:15;67.88;;;28.25;;
26277;SDS011;14000;52.056;8.510;2022-12-18T03:18:50;62.42;;;28.13;;
26277;SDS011;14000;52.056;8.510;2022-12-18T03:21:21;59.58;;;26.35;;
26277;SDS011;14000;52.056;8.510;2022-12-18T03:23:51;62.08;;;27.23;;
26277;SDS011;14000;52.056;8.510;2022-12-18T03:26:19;53.22;;;25.48;;
26277;SDS011;14000;52.056;8.510;2022-12-18T03:28:50;58.05;;;26.92;;
26277;SDS011;14000;52.056;8.510;2022-12-18T03:31:19;61.67;;;26.25;;
26277;SDS011;14000;52.056;8.510;2022-12-18T03:33:47;57.45;;;26.20;;
26277;SDS011;14000;52.056;8.510;2022-12-18T03:36:20;60.42;;;27.50;;
26277;SDS011;14000;52.056;8.510;2022-12-18T03:38:46;57.50;;;27.35;;
26277;SDS011;14000;52.056;8.510;2022-12-18T03:52:06;61.17;;;28.75;;
26277;SDS011;14000;52.056;8.510;2022-12-18T03:54:40;67.80;;;29.65;;
26277;SDS011;14000;52.056;8.510;2022-12-18T03:57:18;62.28;;;28.65;;
26277;SDS011;14000;52.056;8.510;2022-12-18T03:59:47;57.30;;;28.10;;
26277;SDS011;14000;52.056;8.510;2022-12-18T04:02:18;64.38;;;29.23;;
26277;SDS011;14000;52.056;8.510;2022-12-18T04:04:45;58.30;;;28.02;;
26277;SDS011;14000;52.056;8.510;2022-12-18T04:07:13;57.55;;;27.35;;
26277;SDS011;14000;52.056;8.510;2022-12-18T04:09:39;61.20;;;29.02;;
26277;SDS011;14000;52.056;8.510;2022-12-18T04:12:08;64.90;;;29.48;;
26277;SDS011;14000;52.056;8.510;2022-12-18T04:14:34;67.63;;;30.00;;
26277;SDS011;14000;52.056;8.510;2022-12-18T04:17:01;58.80;;;26.98;;
26277;SDS011;14000;52.056;8.510;2022-12-18T04:19:29;60.85;;;27.58;;
26277;SDS011;14000;52.056;8.510;2022-12-18T04:21:55;64.13;;;27.53;;
26277;SDS011;14000;52.056;8.510;2022-12-18T04:24:21;56.93;;;25.87;;
26277;SDS011;14000;52.056;8.510;2022-12-18T04:26:46;57.60;;;27.63;;
26277;SDS011;14000;52.056;8.510;2022-12-18T04:29:12;62.13;;;28.13;;
26277;SDS011;14000;52.056;8.510;2022-12-18T04:31:37;62.00;;;27.93;;
26277;SDS011;14000;52.056;8.510;2022-12-18T04:34:03;71.20;;;27.73;;
26277;SDS011;14000;52.056;8.510;2022-12-18T04:36:29;55.90;;;26.50;;
26277;SDS011;14000;52.056;8.510;2022-12-18T04:38:54;58.53;;;26.47;;
26277;SDS011;14000;52.056;8.510;2022-12-18T04:41:20;64.60;;;27.13;;
26277;SDS011;14000;52.056;8.510;2022-12-18T04:43:46;57.67;;;25.63;;
26277;SDS011;14000;52.056;8.510;2022-12-18T04:46:11;60.37;;;26.93;;
26277;SDS011;14000;52.056;8.510;2022-12-18T04:48:37;62.40;;;27.03;;
26277;SDS011;14000;52.056;8.510;2022-12-18T04:51:04;60.33;;;25.83;;
26277;SDS011;14000;52.056;8.510;2022-12-18T04:53:30;54.47;;;23.52;;
26277;SDS011;14000;52.056;8.510;2022-12-18T04:56:30;51.22;;;23.55;;
26277;SDS011;14000;52.056;8.510;2022-12-18T04:58:48;57.53;;;27.27;;
26277;SDS011;14000;52.056;8.510;2022-12-18T05:01:15;56.90;;;25.87;;
26277;SDS011;14000;52.056;8.510;2022-12-18T05:03:42;55.63;;;26.08;;
26277;SDS011;14000;52.056;8.510;2022-12-18T05:06:07;54.60;;;25.63;;
26277;SDS011;14000;52.056;8.510;2022-12-18T05:08:33;56.63;;;25.20;;
26277;SDS011;14000;52.056;8.510;2022-12-18T05:11:00;59.43;;;26.40;;
26277;SDS011;14000;52.056;8.510;2022-12-18T05:13:28;53.08;;;23.35;;
26277;SDS011;14000;52.056;8.510;2022-12-18T05:15:54;48.40;;;22.10;;
26277;SDS011;14000;52.056;8.510;2022-12-18T05:18:21;51.80;;;23.73;;
26277;SDS011;14000;52.056;8.510;2022-12-18T05:20:49;51.40;;;23.73;;
26277;SDS011;14000;52.056;8.510;2022-12-18T05:23:15;57.63;;;23.27;;
26277;SDS011;14000;52.056;8.510;2022-12-18T05:25:40;56.30;;;24.50;;
26277;SDS011;14000;52.056;8.510;2022-12-18T05:28:06;51.87;;;23.93;;
26277;SDS011;14000;52.056;8.510;2022-12-18T05:30:32;52.27;;;24.43;;
26277;SDS011;14000;52.056;8.510;2022-12-18T05:32:57;57.70;;;23.33;;
26277;SDS011;14000;52.056;8.510;2022-12-18T05:35:23;53.33;;;23.87;;
26277;SDS011;14000;52.056;8.510;2022-12-18T05:37:49;55.85;;;24.90;;
26277;SDS011;14000;52.056;8.510;2022-12-18T05:40:15;54.20;;;24.30;;
26277;SDS011;14000;52.056;8.510;2022-12-18T05:42:40;52.30;;;24.87;;
26277;SDS011;14000;52.056;8.510;2022-12-18T05:45:06;57.20;;;25.70;;
26277;SDS011;14000;52.056;8.510;2022-12-18T05:47:32;58.20;;;25.07;;
26277;SDS011;14000;52.056;8.510;2022-12-18T05:49:57;53.80;;;25.30;;
26277;SDS011;14000;52.056;8.510;2022-12-18T05:52:23;60.23;;;25.70;;
26277;SDS011;14000;52.056;8.510;2022-12-18T05:54:49;63.43;;;24.60;;
26277;SDS011;14000;52.056;8.510;2022-12-18T05:57:15;58.60;;;25.20;;
26277;SDS011;14000;52.056;8.510;2022-12-18T05:59:40;60.07;;;26.07;;
26277;SDS011;14000;52.056;8.510;2022-12-18T06:02:06;60.43;;;25.07;;
26277;SDS011;14000;52.056;8.510;2022-12-18T06:04:31;59.27;;;25.10;;
26277;SDS011;14000;52.056;8.510;2022-12-18T06:06:57;55.78;;;25.58;;
26277;SDS011;14000;52.056;8.510;2022-12-18T06:09:23;52.30;;;24.43;;
26277;SDS011;14000;52.056;8.510;2022-12-18T06:11:49;60.87;;;25.60;;
26277;SDS011;14000;52.056;8.510;2022-12-18T06:14:16;52.83;;;24.58;;
26277;SDS011;14000;52.056;8.510;2022-12-18T06:16:42;54.97;;;24.73;;
26277;SDS011;14000;52.056;8.510;2022-12-18T06:19:12;56.07;;;23.87;;
26277;SDS011;14000;52.056;8.510;2022-12-18T06:21:39;53.10;;;23.58;;
26277;SDS011;14000;52.056;8.510;2022-12-18T06:24:05;50.47;;;23.93;;
26277;SDS011;14000;52.056;8.510;2022-12-18T06:26:31;58.67;;;23.53;;
26277;SDS011;14000;52.056;8.510;2022-12-18T06:28:57;52.63;;;24.00;;
26277;SDS011;14000;52.056;8.510;2022-12-18T06:31:22;57.97;;;24.03;;
26277;SDS011;14000;52.056;8.510;2022-12-18T06:33:48;52.37;;;24.37;;
26277;SDS011;14000;52.056;8.510;2022-12-18T06:36:14;53.47;;;23.40;;
26277;SDS011;14000;52.056;8.510;2022-12-18T06:38:41;54.17;;;23.70;;
26277;SDS011;14000;52.056;8.510;2022-12-18T06:41:12;55.97;;;25.00;;
26277;SDS011;14000;52.056;8.510;2022-12-18T06:43:39;51.92;;;23.80;;
26277;SDS011;14000;52.056;8.510;2022-12-18T06:46:05;55.33;;;24.80;;
26277;SDS011;14000;52.056;8.510;2022-12-18T06:48:31;55.30;;;23.87;;
26277;SDS011;14000;52.056;8.510;2022-12-18T06:50:57;48.58;;;23.00;;
26277;SDS011;14000;52.056;8.510;2022-12-18T06:53:23;53.97;;;23.23;;
26277;SDS011;14000;52.056;8.510;2022-12-18T06:55:49;54.70;;;23.63;;
26277;SDS011;14000;52.056;8.510;2022-12-18T06:58:14;48.00;;;22.27;;
26277;SDS011;14000;52.056;8.510;2022-12-18T07:00:40;53.30;;;23.73;;
26277;SDS011;14000;52.056;8.510;2022-12-18T07:03:06;50.30;;;23.67;;
26277;SDS011;14000;52.056;8.510;2022-12-18T07:05:32;56.63;;;22.93;;
26277;SDS011;14000;52.056;8.510;2022-12-18T07:07:57;54.43;;;23.83;;
26277;SDS011;14000;52.056;8.510;2022-12-18T07:10:24;50.13;;;23.45;;
26277;SDS011;14000;52.056;8.510;2022-12-18T07:12:50;52.03;;;23.30;;
26277;SDS011;14000;52.056;8.510;2022-12-18T07:15:16;50.23;;;22.87;;
26277;SDS011;14000;52.056;8.510;2022-12-18T07:17:41;57.67;;;23.30;;
26277;SDS011;14000;52.056;8.510;2022-12-18T07:20:07;48.97;;;22.67;;
26277;SDS011;14000;52.056;8.510;2022-12-18T07:22:33;50.63;;;22.77;;
26277;SDS011;14000;52.056;8.510;2022-12-18T07:24:59;56.47;;;23.83;;
26277;SDS011;14000;52.056;8.510;2022-12-18T07:27:24;51.43;;;22.33;;
26277;SDS011;14000;52.056;8.510;2022-12-18T07:29:50;51.83;;;23.13;;
26277;SDS011;14000;52.056;8.510;2022-12-18T07:32:15;52.57;;;23.07;;
26277;SDS011;14000;52.056;8.510;2022-12-18T07:34:41;47.97;;;22.10;;
26277;SDS011;14000;52.056;8.510;2022-12-18T07:37:07;54.27;;;23.10;;
26277;SDS011;14000;52.056;8.510;2022-12-18T07:39:32;49.17;;;22.77;;
26277;SDS011;14000;52.056;8.510;2022-12-18T07:41:58;49.70;;;23.67;;
26277;SDS011;14000;52.056;8.510;2022-12-18T07:44:42;46.88;;;21.35;;
26277;SDS011;14000;52.056;8.510;2022-12-18T07:47:07;52.10;;;22.60;;
26277;SDS011;14000;52.056;8.510;2022-12-18T07:49:33;52.80;;;23.53;;
26277;SDS011;14000;52.056;8.510;2022-12-18T07:51:59;50.60;;;22.37;;
26277;SDS011;14000;52.056;8.510;2022-12-18T07:54:24;50.70;;;22.53;;
26277;SDS011;14000;52.056;8.510;2022-12-18T07:56:51;48.77;;;23.37;;
26277;SDS011;14000;52.056;8.510;2022-12-18T07:59:17;50.28;;;23.33;;
26277;SDS011;14000;52.056;8.510;2022-12-18T08:01:43;50.65;;;21.08;;
26277;SDS011;14000;52.056;8.510;2022-12-18T08:04:09;52.93;;;21.60;;
26277;SDS011;14000;52.056;8.510;2022-12-18T08:06:34;47.33;;;20.87;;
26277;SDS011;14000;52.056;8.510;2022-12-18T08:09:00;52.80;;;21.70;;
26277;SDS011;14000;52.056;8.510;2022-12-18T08:11:26;53.27;;;21.23;;
26277;SDS011;14000;52.056;8.510;2022-12-18T08:13:53;43.65;;;21.48;;
26277;SDS011;14000;52.056;8.510;2022-12-18T08:16:19;51.97;;;22.15;;
26277;SDS011;14000;52.056;8.510;2022-12-18T08:18:45;48.63;;;23.55;;
26277;SDS011;14000;52.056;8.510;2022-12-18T08:21:15;52.70;;;22.80;;
26277;SDS011;14000;52.056;8.510;2022-12-18T08:23:43;52.35;;;23.10;;
26277;SDS011;14000;52.056;8.510;2022-12-18T08:26:12;47.65;;;22.42;;
26277;SDS011;14000;52.056;8.510;2022-12-18T08:28:39;47.72;;;21.25;;
26277;SDS011;14000;52.056;8.510;2022-12-18T08:31:05;44.70;;;21.33;;
26277;SDS011;14000;52.056;8.510;2022-12-18T08:33:32;49.72;;;21.33;;
26277;SDS011;14000;52.056;8.510;2022-12-18T08:35:58;48.53;;;22.27;;
26277;SDS011;14000;52.056;8.510;2022-12-18T08:38:24;49.42;;;22.15;;
26277;SDS011;14000;52.056;8.510;2022-12-18T08:40:57;47.10;;;21.80;;
26277;SDS011;14000;52.056;8.510;2022-12-18T08:43:27;47.75;;;22.85;;
26277;SDS011;14000;52.056;8.510;2022-12-18T08:46:11;47.03;;;20.65;;
26277;SDS011;14000;52.056;8.510;2022-12-18T08:48:37;55.30;;;22.00;;
26277;SDS011;14000;52.056;8.510;2022-12-18T08:51:03;41.63;;;19.13;;
26277;SDS011;14000;52.056;8.510;2022-12-18T08:53:29;48.57;;;22.90;;
26277;SDS011;14000;52.056;8.510;2022-12-18T08:55:55;45.97;;;22.67;;
26277;SDS011;14000;52.056;8.510;2022-12-18T08:58:22;47.90;;;21.25;;
26277;SDS011;14000;52.056;8.510;2022-12-18T09:00:48;48.20;;;21.03;;
26277;SDS011;14000;52.056;8.510;2022-12-18T09:03:14;40.63;;;19.37;;
26277;SDS011;14000;52.056;8.510;2022-12-18T09:05:41;45.70;;;21.17;;
26277;SDS011;14000;52.056;8.510;2022-12-18T09:08:07;45.83;;;20.87;;
26277;SDS011;14000;52.056;8.510;2022-12-18T09:10:33;40.50;;;19.20;;
26277;SDS011;14000;52.056;8.510;2022-12-18T09:12:59;42.58;;;18.63;;
26277;SDS011;14000;52.056;8.510;2022-12-18T09:15:24;48.97;;;21.03;;
26277;SDS011;14000;52.056;8.510;2022-12-18T09:17:50;44.57;;;20.93;;
26277;SDS011;14000;52.056;8.510;2022-12-18T09:20:17;49.65;;;22.23;;
26277;SDS011;14000;52.056;8.510;2022-12-18T09:22:43;45.77;;;22.00;;
26277;SDS011;14000;52.056;8.510;2022-12-18T09:25:09;54.23;;;24.87;;
26277;SDS011;14000;52.056;8.510;2022-12-18T09:27:34;49.17;;;23.53;;
26277;SDS011;14000;52.056;8.510;2022-12-18T09:30:00;51.13;;;23.73;;
26277;SDS011;14000;52.056;8.510;2022-12-18T09:32:26;53.83;;;26.03;;
26277;SDS011;14000;52.056;8.510;2022-12-18T09:34:51;50.60;;;24.57;;
26277;SDS011;14000;52.056;8.510;2022-12-18T09:37:17;49.60;;;25.07;;
26277;SDS011;14000;52.056;8.510;2022-12-18T09:39:43;55.83;;;27.67;;
26277;SDS011;14000;52.056;8.510;2022-12-18T09:42:10;50.27;;;26.30;;
26277;SDS011;14000;52.056;8.510;2022-12-18T09:44:43;59.22;;;29.80;;
26277;SDS011;14000;52.056;8.510;2022-12-18T09:47:30;54.67;;;27.48;;
26277;SDS011;14000;52.056;8.510;2022-12-18T09:50:03;67.40;;;33.28;;
26277;SDS011;14000;52.056;8.510;2022-12-18T09:52:39;69.53;;;33.75;;
26277;SDS011;14000;52.056;8.510;2022-12-18T09:57:56;56.55;;;29.58;;
26277;SDS011;14000;52.056;8.510;2022-12-18T10:00:27;54.65;;;28.75;;
26277;SDS011;14000;52.056;8.510;2022-12-18T10:02:56;55.67;;;28.50;;
26277;SDS011;14000;52.056;8.510;2022-12-18T10:10:54;50.90;;;26.23;;
26277;SDS011;14000;52.056;8.510;2022-12-18T10:13:49;51.15;;;25.55;;
26277;SDS011;14000;52.056;8.510;2022-12-18T10:16:35;60.65;;;29.98;;
26277;SDS011;14000;52.056;8.510;2022-12-18T10:22:10;49.83;;;25.50;;
26277;SDS011;14000;52.056;8.510;2022-12-18T10:27:39;49.33;;;22.77;;
26277;SDS011;14000;52.056;8.510;2022-12-18T10:30:12;48.60;;;23.27;;
26277;SDS011;14000;52.056;8.510;2022-12-18T10:32:39;46.83;;;22.13;;
26277;SDS011;14000;52.056;8.510;2022-12-18T10:35:07;47.23;;;21.77;;
26277;SDS011;14000;52.056;8.510;2022-12-18T10:37:59;39.60;;;19.90;;
26277;SDS011;14000;52.056;8.510;2022-12-18T10:43:23;35.90;;;18.85;;
26277;SDS011;14000;52.056;8.510;2022-12-18T10:45:59;34.55;;;17.85;;
26277;SDS011;14000;52.056;8.510;2022-12-18T10:48:36;40.53;;;19.70;;
26277;SDS011;14000;52.056;8.510;2022-12-18T10:51:25;39.33;;;18.30;;
26277;SDS011;14000;52.056;8.510;2022-12-18T10:56:23;32.58;;;16.02;;
26277;SDS011;14000;52.056;8.510;2022-12-18T10:58:58;34.97;;;17.20;;
26277;SDS011;14000;52.056;8.510;2022-12-18T11:01:26;34.33;;;16.40;;
26277;SDS011;14000;52.056;8.510;2022-12-18T11:06:19;30.10;;;14.73;;
26277;SDS011;14000;52.056;8.510;2022-12-18T11:08:59;27.05;;;13.15;;
26277;SDS011;14000;52.056;8.510;2022-12-18T11:11:25;24.40;;;11.85;;
26277;SDS011;14000;52.056;8.510;2022-12-18T11:16:26;22.42;;;10.45;;
26277;SDS011;14000;52.056;8.510;2022-12-18T11:18:55;30.52;;;13.70;;
26277;SDS011;14000;52.056;8.510;2022-12-18T11:22:21;27.98;;;13.60;;
26277;SDS011;14000;52.056;8.510;2022-12-18T11:24:59;25.93;;;10.70;;
26277;SDS011;14000;52.056;8.510;2022-12-18T11:27:47;23.40;;;11.50;;
26277;SDS011;14000;52.056;8.510;2022-12-18T11:30:23;24.70;;;11.10;;
26277;SDS011;14000;52.056;8.510;2022-12-18T11:32:53;22.27;;;10.33;;
26277;SDS011;14000;52.056;8.510;2022-12-18T11:35:20;21.83;;;10.00;;
26277;SDS011;14000;52.056;8.510;2022-12-18T11:37:54;20.37;;;9.03;;
26277;SDS011;14000;52.056;8.510;2022-12-18T11:40:30;20.20;;;9.17;;
26277;SDS011;14000;52.056;8.510;2022-12-18T11:43:02;20.70;;;9.03;;
26277;SDS011;14000;52.056;8.510;2022-12-18T11:45:48;22.23;;;9.73;;
26277;SDS011;14000;52.056;8.510;2022-12-18T11:50:56;24.50;;;11.23;;
26277;SDS011;14000;52.056;8.510;2022-12-18T11:53:24;21.50;;;10.53;;
26277;SDS011;14000;52.056;8.510;2022-12-18T11:58:45;24.07;;;10.60;;
26277;SDS011;14000;52.056;8.510;2022-12-18T12:01:47;21.40;;;9.73;;
26277;SDS011;14000;52.056;8.510;2022-12-18T12:10:07;20.83;;;9.60;;
26277;SDS011;14000;52.056;8.510;2022-12-18T12:13:07;24.57;;;10.87;;
26277;SDS011;14000;52.056;8.510;2022-12-18T12:15:49;23.17;;;11.00;;
26277;SDS011;14000;52.056;8.510;2022-12-18T12:18:50;26.30;;;10.53;;
26277;SDS011;14000;52.056;8.510;2022-12-18T12:21:47;21.23;;;9.90;;
26277;SDS011;14000;52.056;8.510;2022-12-18T12:24:35;21.93;;;9.90;;
26277;SDS011;14000;52.056;8.510;2022-12-18T12:27:34;23.37;;;10.83;;
26277;SDS011;14000;52.056;8.510;2022-12-18T12:33:08;23.47;;;10.47;;
26277;SDS011;14000;52.056;8.510;2022-12-18T12:35:55;21.27;;;9.93;;
26277;SDS011;14000;52.056;8.510;2022-12-18T12:38:30;22.50;;;9.87;;
26277;SDS011;14000;52.056;8.510;2022-12-18T12:41:12;25.30;;;10.73;;
26277;SDS011;14000;52.056;8.510;2022-12-18T12:43:58;23.17;;;10.97;;
26277;SDS011;14000;52.056;8.510;2022-12-18T12:46:27;25.20;;;9.60;;
26277;SDS011;14000;52.056;8.510;2022-12-18T12:48:56;24.90;;;10.93;;
26277;SDS011;14000;52.056;8.510;2022-12-18T12:51:34;24.50;;;11.27;;
26277;SDS011;14000;52.056;8.510;2022-12-18T12:54:02;26.10;;;10.97;;
26277;SDS011;14000;52.056;8.510;2022-12-18T12:56:42;24.30;;;11.13;;
26277;SDS011;14000;52.056;8.510;2022-12-18T13:02:22;23.07;;;10.40;;
26277;SDS011;14000;52.056;8.510;2022-12-18T13:05:02;25.53;;;10.17;;
26277;SDS011;14000;52.056;8.510;2022-12-18T13:07:53;23.23;;;9.70;;
26277;SDS011;14000;52.056;8.510;2022-12-18T13:10:23;21.60;;;9.97;;
26277;SDS011;14000;52.056;8.510;2022-12-18T13:12:58;28.07;;;12.00;;
26277;SDS011;14000;52.056;8.510;2022-12-18T13:15:32;24.23;;;10.47;;
26277;SDS011;14000;52.056;8.510;2022-12-18T13:25:56;23.40;;;9.77;;
26277;SDS011;14000;52.056;8.510;2022-12-18T13:30:58;21.43;;;9.53;;
26277;SDS011;14000;52.056;8.510;2022-12-18T13:35:51;27.47;;;9.97;;
26277;SDS011;14000;52.056;8.510;2022-12-18T13:38:20;22.23;;;10.13;;
26277;SDS011;14000;52.056;8.510;2022-12-18T13:48:27;21.37;;;10.20;;
26277;SDS011;14000;52.056;8.510;2022-12-18T13:50:58;24.03;;;10.93;;
26277;SDS011;14000;52.056;8.510;2022-12-18T13:56:18;21.77;;;9.43;;
26277;SDS011;14000;52.056;8.510;2022-12-18T13:59:04;22.83;;;9.53;;
26277;SDS011;14000;52.056;8.510;2022-12-18T14:01:33;21.30;;;9.50;;
26277;SDS011;14000;52.056;8.510;2022-12-18T14:04:08;25.80;;;10.23;;
26277;SDS011;14000;52.056;8.510;2022-12-18T14:06:35;23.07;;;10.40;;
26277;SDS011;14000;52.056;8.510;2022-12-18T14:09:02;21.47;;;10.27;;
26277;SDS011;14000;52.056;8.510;2022-12-18T14:11:28;26.60;;;12.37;;
26277;SDS011;14000;52.056;8.510;2022-12-18T14:13:55;27.17;;;11.80;;
26277;SDS011;14000;52.056;8.510;2022-12-18T14:16:21;30.60;;;13.43;;
26277;SDS011;14000;52.056;8.510;2022-12-18T14:21:21;22.63;;;10.87;;
26277;SDS011;14000;52.056;8.510;2022-12-18T14:24:05;27.40;;;11.33;;
26277;SDS011;14000;52.056;8.510;2022-12-18T14:26:38;24.20;;;10.90;;
26277;SDS011;14000;52.056;8.510;2022-12-18T14:34:33;26.40;;;11.20;;
26277;SDS011;14000;52.056;8.510;2022-12-18T14:36:59;22.03;;;10.47;;
26277;SDS011;14000;52.056;8.510;2022-12-18T14:39:24;22.13;;;9.53;;
26277;SDS011;14000;52.056;8.510;2022-12-18T14:41:50;21.37;;;9.80;;
26277;SDS011;14000;52.056;8.510;2022-12-18T14:44:16;24.17;;;10.40;;
26277;SDS011;14000;52.056;8.510;2022-12-18T14:46:43;26.03;;;10.67;;
26277;SDS011;14000;52.056;8.510;2022-12-18T14:49:24;24.97;;;10.70;;
26277;SDS011;14000;52.056;8.510;2022-12-18T14:51:53;25.23;;;11.47;;
26277;SDS011;14000;52.056;8.510;2022-12-18T14:54:26;27.47;;;10.70;;
26277;SDS011;14000;52.056;8.510;2022-12-18T14:59:22;22.70;;;10.37;;
26277;SDS011;14000;52.056;8.510;2022-12-18T15:04:42;17.93;;;8.83;;
26277;SDS011;14000;52.056;8.510;2022-12-18T15:12:39;19.97;;;8.87;;
26277;SDS011;14000;52.056;8.510;2022-12-18T15:17:58;20.73;;;9.20;;
26277;SDS011;14000;52.056;8.510;2022-12-18T15:20:24;22.10;;;9.83;;
26277;SDS011;14000;52.056;8.510;2022-12-18T15:22:50;31.03;;;12.37;;
26277;SDS011;14000;52.056;8.510;2022-12-18T15:27:59;27.87;;;12.43;;
26277;SDS011;14000;52.056;8.510;2022-12-18T15:30:25;21.23;;;9.60;;
26277;SDS011;14000;52.056;8.510;2022-12-18T15:32:51;21.83;;;10.20;;
26277;SDS011;14000;52.056;8.510;2022-12-18T15:35:37;23.43;;;10.67;;
26277;SDS011;14000;52.056;8.510;2022-12-18T15:38:03;24.17;;;10.87;;
26277;SDS011;14000;52.056;8.510;2022-12-18T15:40:28;22.10;;;10.20;;
26277;SDS011;14000;52.056;8.510;2022-12-18T15:42:54;19.50;;;9.33;;
26277;SDS011;14000;52.056;8.510;2022-12-18T15:45:56;20.83;;;9.80;;
26277;SDS011;14000;52.056;8.510;2022-12-18T15:48:22;27.53;;;13.73;;
26277;SDS011;14000;52.056;8.510;2022-12-18T15:50:51;24.13;;;8.80;;
26277;SDS011;14000;52.056;8.510;2022-12-18T15:53:18;18.60;;;8.80;;
26277;SDS011;14000;52.056;8.510;2022-12-18T15:55:44;20.27;;;8.60;;
26277;SDS011;14000;52.056;8.510;2022-12-18T15:58:28;18.87;;;9.07;;
26277;SDS011;14000;52.056;8.510;2022-12-18T16:00:54;20.23;;;9.13;;
26277;SDS011;14000;52.056;8.510;2022-12-18T16:03:23;17.37;;;8.43;;
26277;SDS011;14000;52.056;8.510;2022-12-18T16:05:48;19.97;;;9.27;;
26277;SDS011;14000;52.056;8.510;2022-12-18T16:08:14;23.17;;;9.23;;
26277;SDS011;14000;52.056;8.510;2022-12-18T16:10:39;20.90;;;9.70;;
26277;SDS011;14000;52.056;8.510;2022-12-18T16:13:05;21.60;;;10.20;;
26277;SDS011;14000;52.056;8.510;2022-12-18T16:15:34;21.77;;;9.67;;
26277;SDS011;14000;52.056;8.510;2022-12-18T16:18:00;24.13;;;10.63;;
26277;SDS011;14000;52.056;8.510;2022-12-18T16:20:26;35.43;;;15.83;;
26277;SDS011;14000;52.056;8.510;2022-12-18T16:22:51;21.50;;;10.47;;
26277;SDS011;14000;52.056;8.510;2022-12-18T16:25:22;35.27;;;16.00;;
26277;SDS011;14000;52.056;8.510;2022-12-18T16:27:49;24.20;;;11.05;;
26277;SDS011;14000;52.056;8.510;2022-12-18T16:30:16;23.97;;;11.10;;
26277;SDS011;14000;52.056;8.510;2022-12-18T16:32:44;21.47;;;9.67;;
26277;SDS011;14000;52.056;8.510;2022-12-18T16:35:13;36.47;;;15.40;;
26277;SDS011;14000;52.056;8.510;2022-12-18T16:37:40;23.07;;;10.30;;
26277;SDS011;14000;52.056;8.510;2022-12-18T16:40:07;25.17;;;11.70;;
26277;SDS011;14000;52.056;8.510;2022-12-18T16:42:35;23.57;;;10.00;;
26277;SDS011;14000;52.056;8.510;2022-12-18T16:45:02;23.67;;;10.80;;
26277;SDS011;14000;52.056;8.510;2022-12-18T16:47:29;22.17;;;10.37;;